Time;durP1;ratioP1;P1;durP2;ratioP2;P2;SDS_P1;SDS_P2;PMS_P1;PMS_P2;Temp;Humidity;BMP_temperature;BMP_pressure;BME280_temperature;BME280_humidity;BME280_pressure;Samples;Min_cycle;Max_cycle;Signal;HPM_P1;HPM_P2
2022/06/08 00:00:53;;;;;;;10.10;9.10;;;11.00;99.90;;;;;;5048444;28;20064;-28
2022/06/08 00:03:26;;;;;;;11.13;9.35;;;11.00;99.90;;;;;;5048667;28;20175;-28
2022/06/08 00:05:52;;;;;;;12.00;9.93;;;11.00;99.90;;;;;;5013769;28;20094;-28
2022/06/08 00:08:19;;;;;;;13.07;9.40;;;11.00;99.90;;;;;;5032073;28;20110;-28
2022/06/08 00:10:45;;;;;;;13.20;9.57;;;11.00;99.90;;;;;;5053214;28;20044;-28
2022/06/08 00:13:11;;;;;;;13.82;10.57;;;11.00;99.90;;;;;;5050969;28;20036;-28
2022/06/08 00:15:37;;;;;;;10.30;9.23;;;11.00;99.90;;;;;;5050158;28;20040;-28
2022/06/08 00:18:05;;;;;;;12.13;10.45;;;11.00;99.90;;;;;;5049408;28;20492;-28
2022/06/08 00:20:31;;;;;;;13.82;10.45;;;11.00;99.90;;;;;;5048521;28;20071;-28
2022/06/08 00:22:56;;;;;;;12.18;9.85;;;10.90;99.90;;;;;;5045757;28;20072;-28
2022/06/08 00:25:23;;;;;;;11.05;9.57;;;10.90;99.90;;;;;;5049201;28;20049;-28
2022/06/08 00:27:48;;;;;;;13.05;10.55;;;10.90;99.90;;;;;;5050863;28;20397;-28
2022/06/08 00:30:14;;;;;;;14.35;11.68;;;10.90;99.90;;;;;;5051340;28;20114;-28
2022/06/08 00:32:40;;;;;;;15.02;12.23;;;11.00;99.90;;;;;;5052434;28;20041;-28
2022/06/08 00:35:07;;;;;;;15.88;10.52;;;11.00;99.90;;;;;;5030989;28;20374;-28
2022/06/08 00:37:33;;;;;;;15.60;11.10;;;11.10;99.90;;;;;;5045399;28;20045;-28
2022/06/08 00:39:59;;;;;;;12.35;10.88;;;11.20;99.90;;;;;;5053249;28;20124;-28
2022/06/08 00:42:26;;;;;;;14.60;11.48;;;11.30;99.90;;;;;;5053552;28;20200;-28
2022/06/08 00:44:56;;;;;;;14.40;12.07;;;11.30;99.90;;;;;;5052689;28;20044;-28
2022/06/08 00:47:28;;;;;;;16.30;12.77;;;11.30;99.90;;;;;;5035904;28;20497;-28
2022/06/08 00:49:58;;;;;;;14.48;12.00;;;11.40;99.90;;;;;;5051838;28;20099;-26
2022/06/08 00:52:25;;;;;;;17.05;12.32;;;11.50;99.90;;;;;;5042051;28;20403;-26
2022/06/08 00:54:58;;;;;;;15.55;12.07;;;11.50;99.90;;;;;;5040149;28;20048;-26
2022/06/08 00:57:25;;;;;;;13.63;11.15;;;11.50;99.90;;;;;;5044837;28;20047;-26
2022/06/08 00:59:58;;;;;;;16.33;12.80;;;11.60;99.90;;;;;;5053968;28;20041;-26
2022/06/08 01:02:24;;;;;;;17.67;12.73;;;11.60;99.90;;;;;;5039480;28;20036;-26
2022/06/08 01:04:50;;;;;;;15.13;11.88;;;11.60;99.90;;;;;;5053739;28;20055;-26
2022/06/08 01:07:20;;;;;;;15.35;11.85;;;11.70;99.90;;;;;;5019679;28;20037;-26
2022/06/08 01:09:48;;;;;;;16.77;11.93;;;11.70;99.90;;;;;;5054033;28;20037;-26
2022/06/08 01:12:18;;;;;;;13.88;11.90;;;11.70;99.90;;;;;;5053503;28;20448;-26
2022/06/08 01:14:45;;;;;;;18.00;12.48;;;11.70;99.90;;;;;;5053252;28;20066;-26
2022/06/08 01:17:17;;;;;;;18.20;13.15;;;11.80;99.90;;;;;;5053704;28;20134;-26
2022/06/08 01:19:46;;;;;;;16.05;11.90;;;11.80;99.90;;;;;;5053496;28;20047;-26
2022/06/08 01:22:16;;;;;;;14.25;11.52;;;11.80;99.90;;;;;;5053009;28;20041;-26
2022/06/08 01:24:44;;;;;;;14.18;12.07;;;11.90;99.90;;;;;;5053057;28;20062;-26
2022/06/08 01:27:25;;;;;;;14.63;12.43;;;11.90;99.90;;;;;;5052743;28;20045;-26
2022/06/08 01:30:00;;;;;;;16.33;12.40;;;11.90;99.90;;;;;;5033374;28;20075;-26
2022/06/08 01:32:33;;;;;;;14.93;12.15;;;12.00;99.90;;;;;;5047361;28;20094;-26
2022/06/08 01:35:24;;;;;;;14.65;12.63;;;12.00;99.90;;;;;;5053255;28;20455;-26
2022/06/08 01:38:10;;;;;;;16.55;12.43;;;12.00;99.90;;;;;;5036467;28;20041;-26
2022/06/08 01:40:55;;;;;;;16.00;12.40;;;12.00;99.90;;;;;;5044528;28;20045;-26
2022/06/08 01:43:39;;;;;;;15.23;12.15;;;12.00;99.90;;;;;;5052986;28;20047;-26
2022/06/08 01:46:27;;;;;;;14.40;12.90;;;12.10;99.90;;;;;;5038533;28;20049;-26
2022/06/08 01:48:59;;;;;;;16.42;12.90;;;12.10;99.90;;;;;;5034778;28;20048;-26
2022/06/08 01:51:38;;;;;;;16.50;12.55;;;12.10;99.90;;;;;;5053192;28;20048;-26
2022/06/08 01:54:12;;;;;;;16.23;13.10;;;12.10;99.90;;;;;;5052507;28;20044;-26
2022/06/08 01:56:41;;;;;;;20.52;13.15;;;12.10;99.90;;;;;;5052633;28;20091;-26
2022/06/08 01:59:13;;;;;;;18.88;14.40;;;12.10;99.90;;;;;;5033183;28;20041;-26
2022/06/08 02:02:05;;;;;;;20.08;12.52;;;12.20;99.90;;;;;;5036549;28;20049;-26
2022/06/08 02:04:37;;;;;;;18.30;13.25;;;12.20;99.90;;;;;;5041664;28;20112;-26
2022/06/08 02:07:12;;;;;;;15.63;13.65;;;12.20;99.90;;;;;;5053509;28;20043;-26
2022/06/08 02:09:55;;;;;;;15.50;12.95;;;12.20;99.90;;;;;;5052343;28;20384;-26
2022/06/08 02:12:22;;;;;;;17.08;14.82;;;12.20;99.90;;;;;;5050715;28;20445;-26
2022/06/08 02:15:00;;;;;;;15.23;12.80;;;12.20;99.90;;;;;;5053260;28;20049;-26
2022/06/08 02:17:37;;;;;;;20.08;15.05;;;12.20;99.90;;;;;;5035531;28;20080;-26
2022/06/08 02:20:11;;;;;;;21.38;15.75;;;12.20;99.90;;;;;;5053036;28;20037;-27
2022/06/08 02:22:45;;;;;;;19.88;15.23;;;12.20;99.90;;;;;;5052868;28;20120;-26
2022/06/08 02:25:21;;;;;;;17.38;14.85;;;12.20;99.90;;;;;;5052175;28;20124;-26
2022/06/08 02:28:00;;;;;;;20.30;16.38;;;12.20;99.90;;;;;;5033998;28;20032;-26
2022/06/08 02:30:29;;;;;;;18.17;16.15;;;12.20;99.90;;;;;;5018037;28;20507;-28
2022/06/08 02:35:57;;;;;;;18.73;15.23;;;12.30;99.90;;;;;;5047265;28;20033;-26
2022/06/08 02:38:30;;;;;;;19.92;15.20;;;12.30;99.90;;;;;;5040138;28;20045;-26
2022/06/08 02:40:58;;;;;;;17.77;15.40;;;12.30;99.90;;;;;;5033815;28;20125;-27
2022/06/08 02:43:37;;;;;;;19.40;16.23;;;12.30;99.90;;;;;;5035891;28;20041;-27
2022/06/08 02:46:23;;;;;;;21.35;16.00;;;12.30;99.90;;;;;;5045978;28;20087;-26
2022/06/08 02:48:49;;;;;;;20.20;16.65;;;12.30;99.90;;;;;;5036094;28;20048;-26
2022/06/08 02:51:16;;;;;;;18.42;15.93;;;12.30;99.90;;;;;;5052275;28;20032;-26
2022/06/08 02:54:04;;;;;;;21.42;16.40;;;12.40;99.90;;;;;;5052202;28;20175;-26
2022/06/08 02:56:34;;;;;;;20.58;17.60;;;12.40;99.90;;;;;;5052399;28;20037;-26
2022/06/08 02:59:02;;;;;;;20.75;16.02;;;12.40;99.90;;;;;;5052083;28;20045;-26
2022/06/08 03:01:55;;;;;;;21.15;17.30;;;12.40;99.90;;;;;;5052114;28;20044;-26
2022/06/08 03:04:27;;;;;;;22.20;17.10;;;12.40;99.90;;;;;;5033275;28;20090;-26
2022/06/08 03:07:00;;;;;;;23.48;17.15;;;12.40;99.90;;;;;;5052155;28;20557;-26
2022/06/08 03:09:28;;;;;;;20.42;16.30;;;12.40;99.90;;;;;;5033212;28;20041;-26
2022/06/08 03:12:01;;;;;;;18.30;16.00;;;12.40;99.90;;;;;;5030800;28;20120;-28
2022/06/08 03:14:28;;;;;;;19.55;16.10;;;12.40;99.90;;;;;;5018691;28;20041;-28
2022/06/08 03:17:01;;;;;;;18.98;16.27;;;12.40;99.90;;;;;;5024920;28;20037;-26
2022/06/08 03:19:30;;;;;;;21.38;16.23;;;12.40;99.90;;;;;;5044241;28;20523;-26
2022/06/08 03:21:56;;;;;;;17.65;15.75;;;12.40;99.90;;;;;;5036281;28;20045;-26
2022/06/08 03:24:23;;;;;;;22.50;16.92;;;12.40;99.90;;;;;;5054082;28;20044;-26
2022/06/08 03:26:54;;;;;;;23.23;16.63;;;12.40;99.90;;;;;;5054824;28;20037;-26
2022/06/08 03:29:20;;;;;;;19.17;15.68;;;12.50;99.90;;;;;;5054800;28;20041;-26
2022/06/08 03:31:46;;;;;;;23.17;16.90;;;12.50;99.90;;;;;;5055405;28;20099;-26
2022/06/08 03:34:12;;;;;;;19.27;16.10;;;12.50;99.90;;;;;;5055133;28;20045;-26
2022/06/08 03:36:38;;;;;;;20.45;15.27;;;12.50;99.90;;;;;;5055904;28;20120;-26
2022/06/08 03:39:05;;;;;;;20.77;15.30;;;12.50;99.90;;;;;;5055274;28;20044;-26
2022/06/08 03:41:31;;;;;;;20.17;15.55;;;12.60;99.90;;;;;;5055333;28;20041;-26
2022/06/08 03:43:57;;;;;;;19.00;15.55;;;12.60;99.90;;;;;;5052002;28;20079;-26
2022/06/08 03:46:23;;;;;;;20.25;15.85;;;12.60;99.90;;;;;;5053896;28;20510;-28
2022/06/08 03:48:51;;;;;;;20.42;16.08;;;12.70;99.90;;;;;;5035185;28;20099;-28
2022/06/08 03:51:18;;;;;;;18.92;16.13;;;12.70;99.90;;;;;;5048331;28;20047;-28
2022/06/08 03:53:58;;;;;;;23.45;15.90;;;12.70;99.90;;;;;;5048983;28;20043;-28
2022/06/08 03:56:27;;;;;;;25.02;16.25;;;12.70;99.90;;;;;;5048347;28;20400;-28
2022/06/08 03:58:54;;;;;;;21.30;15.15;;;12.70;99.90;;;;;;5037942;28;20037;-28
2022/06/08 04:01:20;;;;;;;20.15;15.32;;;12.80;99.90;;;;;;5051234;28;20025;-28
2022/06/08 04:03:47;;;;;;;20.15;14.25;;;12.80;99.90;;;;;;5048626;28;20168;-28
2022/06/08 04:06:13;;;;;;;20.23;15.95;;;12.90;99.90;;;;;;5048016;28;20044;-28
2022/06/08 04:08:39;;;;;;;19.65;15.25;;;12.90;99.90;;;;;;5024884;28;20124;-28
2022/06/08 04:11:05;;;;;;;19.77;15.07;;;12.90;99.90;;;;;;5051663;28;20068;-28
2022/06/08 04:13:31;;;;;;;20.60;15.13;;;13.00;99.90;;;;;;5050348;28;20361;-27
2022/06/08 04:15:57;;;;;;;21.80;15.45;;;13.00;99.90;;;;;;5027115;28;20053;-28
2022/06/08 04:18:24;;;;;;;21.05;15.15;;;13.00;99.90;;;;;;5045350;28;20380;-28
2022/06/08 04:20:53;;;;;;;19.05;14.32;;;13.10;99.90;;;;;;5047261;28;20083;-28
2022/06/08 04:23:21;;;;;;;19.45;15.00;;;13.10;99.90;;;;;;5042026;28;20080;-28
2022/06/08 04:25:48;;;;;;;16.92;13.88;;;13.20;99.90;;;;;;5039866;28;20033;-28
2022/06/08 04:28:15;;;;;;;20.02;15.07;;;13.20;99.90;;;;;;5047610;28;20079;-28
2022/06/08 04:30:41;;;;;;;16.70;14.35;;;13.30;99.90;;;;;;5052693;28;20033;-28
2022/06/08 04:33:07;;;;;;;18.77;14.60;;;13.30;99.90;;;;;;5052713;28;20045;-28
2022/06/08 04:35:33;;;;;;;17.88;15.98;;;13.30;99.90;;;;;;5051339;28;20048;-27
2022/06/08 04:37:59;;;;;;;19.02;15.40;;;13.40;99.90;;;;;;5046900;28;20041;-28
2022/06/08 04:40:26;;;;;;;20.77;16.05;;;13.40;99.90;;;;;;5045099;28;20033;-28
2022/06/08 04:42:52;;;;;;;22.48;16.73;;;13.40;99.90;;;;;;5052173;28;20458;-28
2022/06/08 04:45:18;;;;;;;21.33;16.58;;;13.50;99.90;;;;;;5035685;28;20044;-28
2022/06/08 04:47:44;;;;;;;23.58;17.48;;;13.60;99.90;;;;;;5034951;28;20086;-29
2022/06/08 04:50:11;;;;;;;23.25;17.58;;;13.60;99.90;;;;;;5028365;28;20084;-30
2022/06/08 04:52:37;;;;;;;22.60;17.40;;;13.80;99.90;;;;;;5044906;28;20095;-28
2022/06/08 04:55:06;;;;;;;25.25;18.67;;;13.80;99.90;;;;;;5047988;28;20116;-28
2022/06/08 04:57:36;;;;;;;25.25;18.83;;;13.90;99.90;;;;;;5044316;28;20119;-28
2022/06/08 05:00:06;;;;;;;23.80;19.30;;;14.00;99.90;;;;;;5033807;28;20047;-29
2022/06/08 05:02:48;;;;;;;26.83;19.77;;;14.10;99.90;;;;;;5031980;28;20043;-29
2022/06/08 05:05:19;;;;;;;26.95;19.45;;;14.20;99.90;;;;;;5034433;28;20055;-28
2022/06/08 05:07:46;;;;;;;23.80;19.10;;;14.30;99.90;;;;;;5029556;28;20047;-30
2022/06/08 05:10:12;;;;;;;27.42;19.48;;;14.30;99.90;;;;;;5033965;28;20044;-28
2022/06/08 05:12:39;;;;;;;27.88;19.65;;;14.40;99.90;;;;;;5047546;28;20080;-29
2022/06/08 05:15:08;;;;;;;26.13;20.55;;;14.40;99.90;;;;;;5051896;28;20122;-29
2022/06/08 05:17:34;;;;;;;24.48;20.25;;;14.50;99.90;;;;;;5040302;28;20040;-30
2022/06/08 05:20:01;;;;;;;24.80;19.33;;;14.50;99.90;;;;;;5045901;28;20044;-29
2022/06/08 05:22:27;;;;;;;25.38;20.35;;;14.60;99.90;;;;;;5041556;28;20114;-30
2022/06/08 05:24:54;;;;;;;24.27;19.83;;;14.70;99.90;;;;;;5051683;28;20041;-29
2022/06/08 05:27:20;;;;;;;21.80;18.67;;;14.80;99.90;;;;;;5049856;28;20313;-29
2022/06/08 05:29:46;;;;;;;25.75;20.35;;;14.80;99.90;;;;;;5044640;28;20072;-29
2022/06/08 05:32:11;;;;;;;26.58;20.13;;;14.90;99.90;;;;;;5050439;28;20049;-28
2022/06/08 05:34:37;;;;;;;25.08;18.77;;;15.00;99.90;;;;;;5047144;28;20033;-29
2022/06/08 05:37:03;;;;;;;22.27;19.00;;;15.10;99.90;;;;;;5049054;28;20037;-28
2022/06/08 05:39:29;;;;;;;24.23;20.02;;;15.10;99.90;;;;;;5045750;28;20032;-28
2022/06/08 05:41:55;;;;;;;23.08;18.55;;;15.20;99.90;;;;;;5048851;28;20112;-29
2022/06/08 05:44:21;;;;;;;24.35;18.85;;;15.30;99.90;;;;;;5038925;28;20037;-28
2022/06/08 05:46:51;;;;;;;20.60;18.13;;;15.40;99.90;;;;;;5043194;28;20484;-28
2022/06/08 05:49:17;;;;;;;22.65;18.83;;;15.50;99.90;;;;;;5048226;28;20543;-28
2022/06/08 05:51:44;;;;;;;22.65;18.35;;;15.50;99.90;;;;;;5030968;28;20118;-28
2022/06/08 05:54:11;;;;;;;20.75;18.23;;;15.50;99.90;;;;;;5052322;28;20571;-29
2022/06/08 05:56:37;;;;;;;20.55;18.08;;;15.60;99.90;;;;;;5024293;28;20037;-28
2022/06/08 05:59:04;;;;;;;20.30;18.05;;;15.60;99.90;;;;;;5046490;28;20094;-29
2022/06/08 06:01:31;;;;;;;22.08;18.65;;;15.70;99.90;;;;;;5046767;28;20484;-29
2022/06/08 06:03:59;;;;;;;20.33;17.50;;;15.90;99.90;;;;;;5051104;28;20171;-30
2022/06/08 06:06:25;;;;;;;22.17;17.15;;;16.00;99.90;;;;;;5047326;28;20106;-29
2022/06/08 06:08:51;;;;;;;20.30;16.98;;;16.10;99.90;;;;;;5021210;28;20442;-29
2022/06/08 06:11:16;;;;;;;21.58;17.42;;;16.30;99.90;;;;;;5045703;28;20041;-29
2022/06/08 06:13:43;;;;;;;21.33;16.85;;;16.30;99.90;;;;;;5042170;28;20033;-28
2022/06/08 06:16:09;;;;;;;20.73;17.02;;;16.40;99.90;;;;;;5050471;28;20134;-29
2022/06/08 06:18:35;;;;;;;18.88;16.80;;;16.50;99.90;;;;;;5048357;28;20057;-29
2022/06/08 06:21:01;;;;;;;22.95;17.75;;;16.50;99.90;;;;;;5026349;28;20221;-29
2022/06/08 06:23:29;;;;;;;22.80;17.70;;;16.60;99.90;;;;;;5050717;28;20062;-29
2022/06/08 06:25:55;;;;;;;21.67;17.58;;;16.80;99.90;;;;;;5050721;28;20048;-29
2022/06/08 06:28:21;;;;;;;21.75;18.42;;;16.90;99.90;;;;;;5049157;28;20114;-29
2022/06/08 06:30:48;;;;;;;22.02;18.15;;;17.00;99.90;;;;;;5048935;28;20038;-29
2022/06/08 06:33:15;;;;;;;19.55;17.30;;;17.10;99.90;;;;;;5049455;28;20502;-29
2022/06/08 06:35:44;;;;;;;20.80;16.58;;;17.20;99.90;;;;;;5028103;28;20102;-30
2022/06/08 06:38:10;;;;;;;19.52;16.75;;;17.30;99.90;;;;;;5041083;28;20128;-29
2022/06/08 06:40:37;;;;;;;20.08;16.65;;;17.40;99.90;;;;;;5030977;28;20037;-29
2022/06/08 06:43:04;;;;;;;18.83;16.63;;;17.50;99.90;;;;;;5025213;28;20037;-29
2022/06/08 06:45:30;;;;;;;21.35;16.58;;;17.60;99.90;;;;;;5047993;28;20033;-29
2022/06/08 06:47:56;;;;;;;20.90;17.05;;;17.70;99.90;;;;;;5041644;28;20049;-29
2022/06/08 06:50:25;;;;;;;18.40;16.27;;;17.90;99.90;;;;;;5052366;28;20048;-29
2022/06/08 06:52:52;;;;;;;19.55;15.35;;;18.10;99.90;;;;;;5053095;28;20056;-29
2022/06/08 06:55:28;;;;;;;18.27;16.15;;;18.20;99.90;;;;;;5054383;28;20032;-29
2022/06/08 06:57:56;;;;;;;15.30;13.40;;;18.30;99.90;;;;;;5053417;28;20049;-29
2022/06/08 07:00:24;;;;;;;14.73;13.18;;;18.40;99.90;;;;;;5029782;28;20045;-30
2022/06/08 07:02:50;;;;;;;14.52;13.02;;;18.40;99.90;;;;;;5055162;28;20420;-29
2022/06/08 07:05:28;;;;;;;15.40;13.38;;;18.40;99.90;;;;;;5029593;28;20111;-29
2022/06/08 07:07:54;;;;;;;13.85;12.38;;;18.50;99.90;;;;;;5046038;28;20033;-30
2022/06/08 07:10:20;;;;;;;14.80;13.13;;;18.60;99.90;;;;;;5045396;28;20496;-29
2022/06/08 07:12:47;;;;;;;14.13;12.63;;;18.60;99.90;;;;;;5053521;28;20115;-29
2022/06/08 07:15:15;;;;;;;15.65;14.02;;;18.80;99.90;;;;;;5034694;28;20127;-29
2022/06/08 07:17:41;;;;;;;14.77;12.63;;;18.90;99.90;;;;;;5050450;28;20036;-29
2022/06/08 07:20:08;;;;;;;15.50;13.02;;;19.00;99.90;;;;;;5030400;28;20040;-29
2022/06/08 07:22:34;;;;;;;17.48;13.48;;;19.20;99.90;;;;;;5012490;28;20056;-29
2022/06/08 07:25:00;;;;;;;14.98;12.20;;;19.30;99.90;;;;;;5031421;28;20043;-29
2022/06/08 07:27:26;;;;;;;13.88;11.93;;;19.40;99.90;;;;;;5046363;28;20032;-29
2022/06/08 07:29:51;;;;;;;12.25;10.65;;;19.50;99.90;;;;;;5053805;28;20040;-29
2022/06/08 07:32:17;;;;;;;12.65;11.02;;;19.50;99.90;;;;;;5054042;28;20036;-29
2022/06/08 07:34:43;;;;;;;12.95;11.38;;;19.70;99.90;;;;;;5042488;28;20045;-28
2022/06/08 07:37:09;;;;;;;11.30;9.80;;;19.70;99.90;;;;;;5046520;28;20787;-29
2022/06/08 07:39:36;;;;;;;10.88;9.40;;;19.70;99.90;;;;;;5048000;28;20033;-29
2022/06/08 07:42:03;;;;;;;10.82;9.40;;;19.80;99.90;;;;;;5052167;28;20041;-28
2022/06/08 07:44:29;;;;;;;12.85;9.13;;;19.90;99.90;;;;;;5053466;28;20037;-29
2022/06/08 07:46:55;;;;;;;10.32;9.32;;;19.90;99.90;;;;;;5054053;28;20101;-28
2022/06/08 07:49:45;;;;;;;11.40;10.15;;;20.00;99.90;;;;;;5019334;28;20547;-29
2022/06/08 07:52:13;;;;;;;12.02;8.40;;;20.10;99.90;;;;;;5042634;28;20041;-30
2022/06/08 07:54:41;;;;;;;10.50;8.40;;;20.30;99.90;;;;;;5050500;28;20037;-29
2022/06/08 07:57:12;;;;;;;9.43;8.43;;;20.40;99.90;;;;;;5043437;28;20414;-29
2022/06/08 07:59:38;;;;;;;11.82;8.40;;;20.50;99.90;;;;;;5030334;28;20419;-29
2022/06/08 08:02:07;;;;;;;11.07;8.75;;;20.60;99.90;;;;;;5054034;28;20037;-29
2022/06/08 08:04:37;;;;;;;9.88;8.20;;;20.50;99.90;;;;;;5009492;28;20049;-29
2022/06/08 08:07:04;;;;;;;10.75;8.88;;;20.70;99.90;;;;;;5030445;28;20033;-27
2022/06/08 08:09:33;;;;;;;9.93;8.90;;;20.60;99.90;;;;;;5028924;28;20102;-27
2022/06/08 08:12:00;;;;;;;9.10;8.20;;;20.60;99.90;;;;;;5038898;28;20103;-28
2022/06/08 08:14:26;;;;;;;9.63;8.60;;;20.70;99.90;;;;;;5053473;28;20076;-27
2022/06/08 08:16:53;;;;;;;9.13;8.18;;;20.90;99.90;;;;;;5036878;28;20040;-27
2022/06/08 08:19:22;;;;;;;9.70;8.70;;;21.00;99.90;;;;;;5053677;28;20484;-28
2022/06/08 08:21:48;;;;;;;9.15;8.20;;;21.20;99.90;;;;;;5036212;28;20124;-28
2022/06/08 08:24:14;;;;;;;8.73;7.30;;;21.20;99.90;;;;;;5053819;28;20048;-27
2022/06/08 08:26:42;;;;;;;10.38;8.52;;;21.40;99.90;;;;;;5045943;28;20098;-30
2022/06/08 08:29:08;;;;;;;8.60;7.47;;;21.40;99.90;;;;;;5042141;28;20492;-30
2022/06/08 08:31:34;;;;;;;8.95;8.05;;;21.70;99.90;;;;;;5049841;28;20037;-30
2022/06/08 08:34:00;;;;;;;10.85;8.75;;;21.80;99.90;;;;;;5034625;28;20044;-29
2022/06/08 08:36:27;;;;;;;9.85;8.00;;;22.00;99.90;;;;;;5052957;28;20044;-30
2022/06/08 08:38:53;;;;;;;8.35;7.55;;;22.10;99.90;;;;;;5047598;28;20116;-30
2022/06/08 08:44:13;;;;;;;9.15;7.68;;;22.40;99.90;;;;;;5047618;28;20077;-30
2022/06/08 08:46:43;;;;;;;9.73;7.97;;;22.30;99.90;;;;;;5052755;28;20118;-28
2022/06/08 08:49:30;;;;;;;9.60;6.85;;;22.40;99.90;;;;;;5049026;28;20044;-27
2022/06/08 08:52:15;;;;;;;8.02;7.28;;;22.40;99.90;;;;;;5016445;28;20382;-30
2022/06/08 08:54:50;;;;;;;8.38;7.53;;;22.20;99.90;;;;;;5045711;28;20041;-31
2022/06/08 08:57:38;;;;;;;8.85;7.82;;;22.30;99.90;;;;;;5026415;28;20042;-28
2022/06/08 09:00:18;;;;;;;10.07;7.22;;;22.60;99.90;;;;;;5045653;28;20585;-29
2022/06/08 09:05:32;;;;;;;8.60;7.53;;;23.30;99.90;;;;;;5051443;28;20056;-29
2022/06/08 09:07:59;;;;;;;8.43;7.32;;;23.30;99.90;;;;;;5045338;28;20041;-29
2022/06/08 09:10:26;;;;;;;7.97;7.20;;;23.50;99.90;;;;;;5045890;28;20451;-30
2022/06/08 09:12:53;;;;;;;7.93;6.70;;;23.30;99.90;;;;;;5048136;28;20049;-30
2022/06/08 09:15:50;;;;;;;7.18;5.65;;;23.00;99.90;;;;;;5038817;28;20526;-30
2022/06/08 09:18:37;;;;;;;4.85;3.78;;;23.30;99.90;;;;;;5048644;28;20033;-29
2022/06/08 09:21:34;;;;;;;5.93;4.28;;;23.40;99.60;;;;;;5039851;28;20091;-29
2022/06/08 09:24:22;;;;;;;5.90;4.65;;;23.50;99.90;;;;;;5044720;28;20056;-30
2022/06/08 09:26:47;;;;;;;5.65;4.35;;;23.30;99.90;;;;;;5031127;28;20074;-30
2022/06/08 09:29:20;;;;;;;5.75;4.47;;;23.20;99.90;;;;;;5047775;28;20128;-29
2022/06/08 09:31:47;;;;;;;4.60;4.15;;;23.30;99.90;;;;;;5047837;28;20118;-29
2022/06/08 09:34:26;;;;;;;5.47;4.28;;;23.10;99.90;;;;;;5050407;28;20239;-29
2022/06/08 09:37:11;;;;;;;5.35;4.22;;;23.10;99.90;;;;;;5033161;28;20096;-30
2022/06/08 09:39:41;;;;;;;5.57;5.03;;;23.10;99.90;;;;;;5050218;28;20041;-29
2022/06/08 09:42:25;;;;;;;4.80;4.30;;;23.00;99.90;;;;;;5032570;28;20045;-29
2022/06/08 09:45:01;;;;;;;6.80;4.90;;;23.30;99.90;;;;;;5029188;28;20033;-29
2022/06/08 09:54:09;;;;;;;3.90;3.45;;;24.40;99.90;;;;;;5041011;28;20049;-29
2022/06/08 09:57:09;;;;;;;3.00;2.58;;;24.40;94.90;;;;;;5050356;28;20037;-29
2022/06/08 10:00:02;;;;;;;3.38;3.00;;;24.50;89.50;;;;;;5044483;28;20033;-29
2022/06/08 10:02:36;;;;;;;;;;;24.40;97.10;;;;;;5010077;28;20079;-30
2022/06/08 10:05:25;;;;;;;5.30;3.60;;;24.00;94.70;;;;;;5050288;28;19917;-29
2022/06/08 10:08:11;;;;;;;4.47;3.80;;;24.00;96.30;;;;;;5044336;28;20029;-29
2022/06/08 10:11:03;;;;;;;4.70;4.30;;;24.20;99.90;;;;;;5041166;28;20033;-30
2022/06/08 10:13:41;;;;;;;5.57;4.90;;;24.50;99.60;;;;;;5030145;28;20488;-30
2022/06/08 10:16:15;;;;;;;6.60;4.68;;;24.90;99.90;;;;;;5046969;28;20040;-30
2022/06/08 10:18:46;;;;;;;6.93;4.50;;;24.80;98.70;;;;;;5047559;28;20743;-30
2022/06/08 10:21:17;;;;;;;5.38;4.85;;;24.80;98.30;;;;;;5047447;28;20076;-30
2022/06/08 10:23:54;;;;;;;7.50;4.88;;;25.00;97.70;;;;;;5047709;28;20124;-30
2022/06/08 10:26:30;;;;;;;5.72;4.57;;;25.00;97.30;;;;;;5036242;28;20408;-30
2022/06/08 10:29:41;;;;;;;8.18;4.43;;;24.70;95.10;;;;;;5034469;28;20037;-29
2022/06/08 10:32:20;;;;;;;5.13;4.13;;;24.70;95.60;;;;;;5047594;28;20101;-30
2022/06/08 10:34:53;;;;;;;4.28;3.88;;;25.00;92.30;;;;;;5053344;28;20044;-30
2022/06/08 10:37:40;;;;;;;4.30;3.90;;;25.20;97.30;;;;;;5036822;28;20045;-30
2022/06/08 10:40:08;;;;;;;5.30;3.92;;;25.00;93.80;;;;;;5050424;28;20044;-30
2022/06/08 10:42:41;;;;;;;4.15;3.78;;;25.10;96.10;;;;;;5046644;28;20120;-30
2022/06/08 10:45:26;;;;;;;4.80;4.40;;;25.00;94.20;;;;;;5044266;28;20389;-30
2022/06/08 10:47:54;;;;;;;5.38;4.30;;;25.10;91.10;;;;;;5048838;28;20389;-31
2022/06/08 10:50:40;;;;;;;5.25;4.75;;;25.40;94.70;;;;;;5046151;28;20119;-32
2022/06/08 10:56:23;;;;;;;4.63;3.88;;;25.70;78.90;;;;;;5046055;28;20084;-30
2022/06/08 10:59:03;;;;;;;4.82;3.92;;;25.90;87.40;;;;;;5030405;28;20037;-30
2022/06/08 11:01:48;;;;;;;6.85;4.78;;;25.90;86.20;;;;;;5032383;28;20048;-30
2022/06/08 11:04:35;;;;;;;5.25;4.80;;;26.10;80.10;;;;;;5050741;28;20135;-30
2022/06/08 11:07:09;;;;;;;4.82;4.40;;;26.30;88.80;;;;;;5053060;28;20045;-31
2022/06/08 11:09:34;;;;;;;4.75;4.35;;;26.20;74.80;;;;;;5045644;28;20044;-31
2022/06/08 11:12:13;;;;;;;5.15;4.85;;;25.90;87.30;;;;;;5053095;28;20033;-30
2022/06/08 11:14:48;;;;;;;5.20;4.70;;;25.70;87.90;;;;;;5042953;28;20037;-29
2022/06/08 11:17:33;;;;;;;5.07;4.57;;;25.50;80.60;;;;;;5048988;28;20515;-30
2022/06/08 11:20:12;;;;;;;4.68;4.35;;;25.40;91.60;;;;;;5048099;28;20472;-30
2022/06/08 11:22:51;;;;;;;4.97;4.63;;;25.30;91.00;;;;;;5045861;28;20055;-30
2022/06/08 11:25:41;;;;;;;5.03;4.60;;;25.00;90.20;;;;;;5052791;28;20395;-30
2022/06/08 11:28:26;;;;;;;6.18;4.43;;;24.70;90.60;;;;;;5042279;28;20042;-30
2022/06/08 11:30:54;;;;;;;5.00;4.60;;;24.50;91.50;;;;;;5052133;28;20048;-30
2022/06/08 11:33:21;;;;;;;5.75;5.28;;;24.10;92.40;;;;;;5027026;28;20034;-30
2022/06/08 11:35:58;;;;;;;5.53;5.05;;;23.70;92.30;;;;;;5050124;28;21393;-30
2022/06/08 11:38:53;;;;;;;6.28;5.30;;;23.30;94.80;;;;;;5046691;28;20041;-30
2022/06/08 11:41:36;;;;;;;5.88;5.40;;;23.00;95.30;;;;;;5030264;28;20029;-30
2022/06/08 11:44:33;;;;;;;5.72;5.18;;;22.80;96.70;;;;;;5052152;28;20110;-31
2022/06/08 11:47:12;;;;;;;6.70;5.40;;;22.70;97.90;;;;;;5043515;28;20052;-29
2022/06/08 11:49:45;;;;;;;5.10;4.70;;;22.50;98.50;;;;;;5046071;28;20036;-29
2022/06/08 11:52:24;;;;;;;7.70;5.13;;;22.40;99.90;;;;;;5041763;28;20101;-29
2022/06/08 11:55:14;;;;;;;5.18;4.70;;;22.30;99.90;;;;;;5046324;28;20443;-30
2022/06/08 11:57:49;;;;;;;4.88;4.47;;;22.10;99.90;;;;;;5050409;28;20091;-30
2022/06/08 12:00:32;;;;;;;6.57;4.93;;;21.90;99.90;;;;;;5032739;28;20116;-29
2022/06/08 12:03:23;;;;;;;6.72;3.47;;;21.70;99.90;;;;;;5048780;28;20085;-29
2022/06/08 12:05:51;;;;;;;7.45;2.35;;;21.40;99.90;;;;;;5043872;28;20116;-29
2022/06/08 12:08:43;;;;;;;5.43;2.33;;;21.00;99.90;;;;;;5046568;28;20049;-29
2022/06/08 12:11:12;;;;;;;5.80;2.25;;;20.70;99.90;;;;;;5018184;28;20053;-29
2022/06/08 12:13:38;;;;;;;6.55;2.22;;;20.30;99.90;;;;;;5045136;28;20045;-29
2022/06/08 12:16:36;;;;;;;5.05;2.03;;;20.10;99.90;;;;;;5032026;28;20468;-29
2022/06/08 12:19:14;;;;;;;5.35;1.90;;;19.90;99.90;;;;;;5050651;28;20114;-29
2022/06/08 12:21:42;;;;;;;4.25;2.05;;;19.70;99.90;;;;;;5052160;28;20112;-29
2022/06/08 12:24:11;;;;;;;4.18;1.90;;;19.60;99.90;;;;;;5047089;28;20052;-29
2022/06/08 12:26:51;;;;;;;5.35;2.50;;;19.60;99.90;;;;;;5044750;28;20475;-29
2022/06/08 12:29:39;;;;;;;6.85;2.47;;;19.60;99.90;;;;;;5042871;28;20051;-29
2022/06/08 12:32:08;;;;;;;5.05;1.90;;;19.50;99.90;;;;;;5031130;28;20519;-29
2022/06/08 12:34:37;;;;;;;6.25;2.35;;;19.40;99.90;;;;;;5046881;28;20404;-29
2022/06/08 12:37:44;;;;;;;3.10;2.30;;;19.30;99.90;;;;;;5031467;28;20033;-29
2022/06/08 12:40:15;;;;;;;4.22;2.00;;;19.30;99.90;;;;;;4936651;29;20050;-29
2022/06/08 12:42:55;;;;;;;5.15;2.17;;;19.20;99.90;;;;;;4952817;29;20137;-29
2022/06/08 12:45:35;;;;;;;5.47;2.40;;;19.30;99.90;;;;;;5002170;28;20052;-29
2022/06/08 12:48:26;;;;;;;6.22;2.58;;;19.40;99.90;;;;;;5048306;28;20045;-30
2022/06/08 12:50:54;;;;;;;9.18;2.63;;;19.40;99.90;;;;;;5047564;28;20044;-30
2022/06/08 12:53:22;;;;;;;4.90;2.60;;;19.50;99.90;;;;;;5041622;28;20096;-29
2022/06/08 12:55:48;;;;;;;5.10;2.80;;;19.50;99.90;;;;;;5018290;28;20033;-30
2022/06/08 12:58:15;;;;;;;9.32;3.50;;;19.60;99.90;;;;;;5034338;28;20074;-30
2022/06/08 13:00:53;;;;;;;7.95;4.45;;;19.60;99.90;;;;;;5018603;28;20140;-29
2022/06/08 13:03:26;;;;;;;4.50;3.63;;;19.60;99.90;;;;;;5045882;28;20102;-29
2022/06/08 13:05:54;;;;;;;6.00;4.57;;;19.60;99.90;;;;;;5037637;28;20052;-29
2022/06/08 13:08:25;;;;;;;6.78;4.63;;;19.70;99.90;;;;;;5026927;28;20128;-29
2022/06/08 13:10:54;;;;;;;5.13;4.03;;;20.00;99.90;;;;;;5023517;28;20076;-28
2022/06/08 13:13:26;;;;;;;5.30;4.18;;;20.30;99.90;;;;;;5034053;28;20045;-29
2022/06/08 13:15:53;;;;;;;8.00;4.20;;;20.70;99.90;;;;;;5045743;28;20052;-30
2022/06/08 13:18:25;;;;;;;6.30;3.90;;;21.10;99.90;;;;;;5032061;28;20044;-30